createdAt,value
2018-05-10T00:01:10.238Z,7.43
2018-05-10T00:03:38.671Z,6.93
2018-05-10T00:06:07.038Z,7.33
2018-05-10T00:08:35.535Z,7.43
2018-05-10T00:11:03.912Z,8.37
2018-05-10T00:13:32.267Z,7.63
2018-05-10T00:16:01.406Z,7.57
2018-05-10T00:18:29.797Z,7.50
2018-05-10T00:20:58.184Z,6.57
2018-05-10T00:23:26.560Z,7.70
2018-05-10T00:25:54.956Z,6.93
2018-05-10T00:28:23.466Z,8.27
2018-05-10T00:30:51.841Z,7.30
2018-05-10T00:33:20.231Z,7.90
2018-05-10T00:35:48.623Z,8.33
2018-05-10T00:38:17.020Z,8.33
2018-05-10T00:40:45.371Z,7.67
2018-05-10T00:43:14.305Z,8.00
2018-05-10T00:45:42.685Z,7.80
2018-05-10T00:48:11.023Z,8.27
2018-05-10T00:50:39.422Z,8.30
2018-05-10T00:53:07.842Z,8.73
2018-05-10T00:55:36.985Z,9.53
2018-05-10T00:58:05.344Z,9.33
2018-05-10T01:00:33.735Z,10.10
2018-05-10T01:03:02.092Z,9.97
2018-05-10T01:05:30.611Z,10.77
2018-05-10T01:07:58.989Z,10.23
2018-05-10T01:10:27.352Z,10.27
2018-05-10T01:12:55.764Z,10.77
2018-05-10T01:15:24.140Z,9.60
2018-05-10T01:17:52.511Z,10.17
2018-05-10T01:20:20.887Z,10.17
2018-05-10T01:22:49.755Z,10.53
2018-05-10T01:25:18.122Z,9.53
2018-05-10T01:27:46.488Z,10.80
2018-05-10T01:30:15.003Z,11.80
2018-05-10T01:32:43.366Z,9.87
2018-05-10T01:35:24.141Z,10.23
2018-05-10T01:37:52.516Z,9.90
2018-05-10T01:40:20.883Z,9.33
2018-05-10T01:42:49.287Z,9.53
2018-05-10T01:45:17.632Z,9.20
2018-05-10T01:47:46.005Z,9.17
2018-05-10T01:50:14.357Z,9.67
2018-05-10T01:52:42.752Z,9.83
2018-05-10T01:55:11.134Z,9.40
2018-05-10T01:57:39.503Z,8.80
2018-05-10T02:00:07.922Z,8.80
2018-05-10T02:02:36.320Z,8.83
2018-05-10T02:05:04.752Z,9.33
2018-05-10T02:07:33.169Z,9.00
2018-05-10T02:10:01.535Z,9.43
2018-05-10T02:12:29.969Z,9.30
2018-05-10T02:14:58.345Z,9.37
2018-05-10T02:17:26.721Z,8.33
2018-05-10T02:19:55.081Z,8.53
2018-05-10T02:22:24.227Z,8.67
2018-05-10T02:24:52.590Z,9.43
2018-05-10T02:27:20.957Z,8.97
2018-05-10T02:29:49.338Z,9.73
2018-05-10T02:32:17.730Z,9.90
2018-05-10T02:34:46.121Z,9.97
2018-05-10T02:37:14.491Z,10.37
2018-05-10T02:39:42.884Z,9.63
2018-05-10T02:42:11.257Z,10.03
2018-05-10T02:44:39.650Z,10.07
2018-05-10T02:47:08.038Z,11.13
2018-05-10T02:49:36.428Z,10.43
2018-05-10T02:52:05.603Z,10.23
2018-05-10T02:54:33.976Z,10.10
2018-05-10T02:57:02.325Z,9.97
2018-05-10T02:59:30.711Z,9.20
2018-05-10T03:01:59.080Z,10.53
2018-05-10T03:04:27.467Z,9.97
2018-05-10T03:06:55.865Z,10.00
2018-05-10T03:09:24.267Z,10.47
2018-05-10T03:11:53.408Z,9.83
2018-05-10T03:14:21.830Z,10.40
2018-05-10T03:16:50.203Z,10.13
2018-05-10T03:19:18.595Z,10.60
2018-05-10T03:21:47.788Z,10.33
2018-05-10T03:24:16.931Z,10.40
2018-05-10T03:26:45.287Z,9.43
2018-05-10T03:29:13.669Z,9.83
2018-05-10T03:31:42.027Z,11.20
2018-05-10T03:34:11.302Z,10.23
2018-05-10T03:36:39.676Z,10.20
2018-05-10T03:39:08.043Z,9.53
2018-05-10T03:41:36.405Z,9.87
2018-05-10T03:44:04.771Z,10.40
2018-05-10T03:46:33.195Z,9.90
2018-05-10T03:49:01.560Z,9.60
2018-05-10T03:51:29.929Z,10.67
2018-05-10T03:53:58.441Z,10.50
2018-05-10T03:56:26.812Z,10.57
2018-05-10T03:58:55.184Z,9.70
2018-05-10T04:01:23.580Z,10.53
2018-05-10T04:07:09.359Z,11.20
2018-05-10T04:09:49.488Z,10.33
2018-05-10T04:12:17.826Z,10.37
2018-05-10T04:14:46.196Z,9.83
2018-05-10T04:17:14.575Z,10.70
2018-05-10T04:19:42.935Z,11.17
2018-05-10T04:22:11.302Z,10.43
2018-05-10T04:24:39.662Z,9.57
2018-05-10T04:27:08.007Z,9.67
2018-05-10T04:29:37.266Z,10.57
2018-05-10T04:32:05.617Z,10.27
2018-05-10T04:34:33.966Z,10.10
2018-05-10T04:37:02.352Z,9.77
2018-05-10T04:39:30.729Z,9.43
2018-05-10T04:41:59.110Z,10.17
2018-05-10T04:44:27.515Z,10.03
2018-05-10T04:46:55.871Z,10.07
2018-05-10T04:49:24.251Z,9.73
2018-05-10T04:51:52.681Z,9.70
2018-05-10T04:54:21.049Z,10.23
2018-05-10T04:56:49.379Z,11.10
2018-05-10T04:59:17.751Z,8.73
2018-05-10T05:01:46.091Z,9.80
2018-05-10T05:04:14.485Z,9.53
2018-05-10T05:06:42.843Z,9.93
2018-05-10T05:09:11.189Z,9.37
2018-05-10T05:11:40.793Z,10.87
2018-05-10T05:14:09.127Z,7.63
2018-05-10T05:16:38.219Z,8.80
2018-05-10T05:19:07.351Z,8.23
2018-05-10T05:21:35.867Z,9.23
2018-05-10T05:24:04.494Z,9.63
2018-05-10T05:26:32.859Z,9.47
2018-05-10T05:29:01.989Z,9.13
2018-05-10T05:31:30.335Z,9.30
2018-05-10T05:33:59.445Z,8.67
2018-05-10T05:36:27.900Z,10.63
2018-05-10T05:38:56.240Z,8.93
2018-05-10T05:41:24.614Z,8.20
2018-05-10T05:43:52.964Z,7.93
2018-05-10T05:46:21.309Z,8.30
2018-05-10T05:48:49.985Z,7.73
2018-05-10T05:51:18.357Z,8.17
2018-05-10T05:53:46.941Z,7.90
2018-05-10T05:56:15.310Z,7.37
2018-05-10T05:58:43.683Z,8.33
2018-05-10T06:01:12.022Z,8.70
2018-05-10T06:03:40.471Z,7.87
2018-05-10T06:06:08.809Z,8.73
2018-05-10T06:08:37.170Z,7.23
2018-05-10T06:11:05.570Z,8.40
2018-05-10T06:13:33.935Z,8.17
2018-05-10T06:16:02.362Z,7.30
2018-05-10T06:18:30.663Z,6.70
2018-05-10T06:20:59.030Z,7.07
2018-05-10T06:23:28.136Z,7.67
2018-05-10T06:25:56.513Z,7.70
2018-05-10T06:28:24.993Z,7.50
2018-05-10T06:30:53.344Z,7.43
2018-05-10T06:33:21.684Z,9.10
2018-05-10T06:35:50.161Z,10.13
2018-05-10T06:38:18.505Z,12.43
2018-05-10T06:40:46.937Z,13.77
2018-05-10T06:43:15.361Z,14.30
2018-05-10T06:45:43.738Z,16.53
2018-05-10T06:48:12.062Z,20.27
2018-05-10T06:50:40.437Z,20.00
2018-05-10T06:53:08.758Z,20.93
2018-05-10T06:55:37.926Z,20.43
2018-05-10T06:58:06.252Z,20.93
2018-05-10T07:00:34.608Z,21.33
2018-05-10T07:03:03.861Z,20.87
2018-05-10T07:05:32.210Z,20.23
2018-05-10T07:08:00.682Z,19.77
2018-05-10T07:10:29.040Z,20.93
2018-05-10T07:12:58.138Z,21.50
2018-05-10T07:15:27.262Z,22.00
2018-05-10T07:17:56.351Z,22.03
2018-05-10T07:20:24.807Z,22.60
2018-05-10T07:22:53.929Z,22.50
2018-05-10T07:25:22.406Z,23.40
2018-05-10T07:27:51.023Z,21.03
2018-05-10T07:30:19.397Z,22.67
2018-05-10T07:32:47.770Z,21.33
2018-05-10T07:35:16.110Z,20.67
2018-05-10T07:37:44.590Z,20.10
2018-05-10T07:40:12.976Z,18.90
2018-05-10T07:42:41.330Z,18.57
2018-05-10T07:45:10.482Z,18.33
2018-05-10T07:47:38.833Z,17.93
2018-05-10T07:50:07.237Z,19.63
2018-05-10T07:52:35.638Z,20.47
2018-05-10T07:55:04.014Z,19.70
2018-05-10T07:57:32.446Z,18.60
2018-05-10T08:00:00.789Z,19.37
2018-05-10T08:02:29.890Z,17.23
2018-05-10T08:04:59.025Z,19.30
2018-05-10T08:07:27.356Z,19.57
2018-05-10T08:09:56.604Z,20.50
2018-05-10T08:12:25.561Z,22.60
2018-05-10T08:14:54.652Z,23.90
2018-05-10T08:17:24.076Z,28.20
2018-05-10T08:19:52.437Z,30.80
2018-05-10T08:22:20.786Z,30.67
2018-05-10T08:24:49.168Z,40.70
2018-05-10T08:27:17.511Z,41.93
2018-05-10T08:29:50.752Z,40.93
2018-05-10T08:32:19.918Z,44.37
2018-05-10T08:34:48.265Z,45.33
2018-05-10T08:37:17.149Z,47.27
2018-05-10T08:39:45.497Z,48.40
2018-05-10T08:42:14.613Z,47.70
2018-05-10T08:44:43.010Z,51.67
2018-05-10T08:47:11.330Z,50.03
2018-05-10T08:49:40.441Z,49.17
2018-05-10T08:52:09.577Z,49.93
2018-05-10T08:54:37.923Z,51.60
2018-05-10T08:57:06.300Z,47.10
2018-05-10T08:59:34.627Z,46.93
2018-05-10T09:02:02.975Z,49.67
2018-05-10T09:04:31.337Z,50.40
2018-05-10T09:06:59.683Z,50.83
2018-05-10T09:09:28.037Z,49.30
2018-05-10T09:11:56.410Z,48.83
2018-05-10T09:14:24.780Z,47.30
2018-05-10T09:16:53.113Z,47.57
2018-05-10T09:19:22.249Z,44.60
2018-05-10T09:21:50.593Z,46.57
2018-05-10T09:24:18.959Z,47.03
2018-05-10T09:26:48.250Z,45.30
2018-05-10T09:29:17.392Z,44.13
2018-05-10T09:31:45.719Z,42.60
2018-05-10T09:34:14.855Z,47.00
2018-05-10T09:36:43.211Z,42.03
2018-05-10T09:39:12.387Z,42.37
2018-05-10T09:41:40.736Z,38.50
2018-05-10T09:44:09.108Z,35.47
2018-05-10T09:46:37.500Z,37.00
2018-05-10T09:49:05.848Z,34.33
2018-05-10T09:51:34.204Z,29.07
2018-05-10T09:54:02.559Z,31.13
2018-05-10T09:56:31.839Z,31.03
2018-05-10T09:59:00.210Z,29.67
2018-05-10T10:01:28.693Z,31.23
2018-05-10T10:03:57.030Z,30.07
2018-05-10T10:06:25.375Z,30.40
2018-05-10T10:08:54.537Z,28.67
2018-05-10T10:11:23.705Z,28.07
2018-05-10T10:13:52.031Z,27.63
2018-05-10T10:16:20.383Z,27.43
2018-05-10T10:18:48.763Z,26.33
2018-05-10T10:21:17.103Z,25.57
2018-05-10T10:23:45.477Z,23.97
2018-05-10T10:26:13.816Z,23.97
2018-05-10T10:28:42.304Z,23.13
2018-05-10T10:31:11.412Z,24.00
2018-05-10T10:33:40.549Z,22.67
2018-05-10T10:36:08.903Z,21.87
2018-05-10T10:38:37.250Z,23.70
2018-05-10T10:41:06.398Z,22.60
2018-05-10T10:43:34.731Z,22.13
2018-05-10T10:46:03.880Z,22.43
2018-05-10T10:48:32.221Z,20.80
2018-05-10T10:51:00.604Z,21.30
2018-05-10T10:53:29.105Z,21.07
2018-05-10T10:55:57.452Z,19.73
2018-05-10T10:58:25.814Z,18.07
2018-05-10T11:00:55.006Z,18.03
2018-05-10T11:03:24.111Z,16.23
2018-05-10T11:05:53.241Z,16.00
2018-05-10T11:08:21.608Z,16.23
2018-05-10T11:10:49.964Z,14.40
2018-05-10T11:13:19.102Z,15.33
2018-05-10T11:15:47.478Z,14.20
2018-05-10T11:18:15.824Z,13.83
2018-05-10T11:20:44.294Z,13.90
2018-05-10T11:23:13.420Z,14.97
2018-05-10T11:25:41.765Z,13.97
2018-05-10T11:28:10.931Z,13.93
2018-05-10T11:30:39.267Z,14.53
2018-05-10T11:33:07.660Z,14.50
2018-05-10T11:35:36.014Z,15.03
2018-05-10T11:38:04.344Z,13.93
2018-05-10T11:40:32.712Z,15.27
2018-05-10T11:43:01.040Z,14.27
2018-05-10T11:45:29.390Z,13.47
2018-05-10T11:47:58.521Z,13.03
2018-05-10T11:50:26.903Z,14.67
2018-05-10T11:52:55.258Z,15.03
2018-05-10T11:55:24.420Z,15.07
2018-05-10T11:57:52.783Z,15.07
2018-05-10T12:00:21.293Z,14.33
2018-05-10T12:02:50.387Z,14.33
2018-05-10T12:05:18.747Z,12.90
2018-05-10T12:07:47.121Z,13.10
2018-05-10T12:10:15.485Z,13.63
2018-05-10T12:12:43.824Z,13.00
2018-05-10T12:15:12.639Z,12.97
2018-05-10T12:17:40.994Z,12.63
2018-05-10T12:20:09.347Z,11.50
2018-05-10T12:22:38.495Z,11.93
2018-05-10T12:25:06.823Z,11.73
2018-05-10T12:27:35.939Z,11.27
2018-05-10T12:30:04.295Z,11.10
2018-05-10T12:32:33.853Z,11.23
2018-05-10T12:35:02.213Z,10.60
2018-05-10T12:37:30.566Z,10.60
2018-05-10T12:39:59.704Z,10.57
2018-05-10T12:42:28.693Z,10.20
2018-05-10T12:44:57.071Z,9.63
2018-05-10T12:47:25.409Z,10.20
2018-05-10T12:49:54.555Z,9.70
2018-05-10T12:52:22.902Z,9.67
2018-05-10T12:54:51.237Z,9.17
2018-05-10T12:57:19.615Z,9.07
2018-05-10T12:59:47.954Z,8.30
2018-05-10T13:02:16.312Z,7.47
2018-05-10T13:04:44.683Z,6.63
2018-05-10T13:07:13.049Z,7.10
2018-05-10T13:09:42.130Z,5.63
2018-05-10T13:12:11.258Z,6.33
2018-05-10T13:14:39.617Z,6.27
2018-05-10T13:17:08.737Z,6.30
2018-05-10T13:19:37.073Z,6.70
2018-05-10T13:22:05.437Z,6.50
2018-05-10T13:24:33.833Z,7.20
2018-05-10T13:27:02.951Z,6.13
2018-05-10T13:29:31.298Z,7.30
2018-05-10T13:31:59.666Z,6.87
2018-05-10T13:34:28.007Z,5.87
2018-05-10T13:36:56.371Z,6.40
2018-05-10T13:39:24.715Z,6.47
2018-05-10T13:41:53.827Z,5.20
2018-05-10T13:44:22.205Z,5.40
2018-05-10T13:46:50.555Z,4.87
2018-05-10T13:49:18.907Z,5.03
2018-05-10T13:51:47.250Z,4.57
2018-05-10T13:54:15.690Z,4.93
2018-05-10T13:56:44.057Z,4.90
2018-05-10T13:59:12.374Z,6.00
2018-05-10T14:01:40.725Z,4.50
2018-05-10T14:04:09.100Z,4.50
2018-05-10T14:06:37.420Z,4.60
2018-05-10T14:09:06.572Z,4.23
2018-05-10T14:11:34.925Z,4.53
2018-05-10T14:14:03.305Z,4.43
2018-05-10T14:16:31.652Z,4.70
2018-05-10T14:19:00.026Z,4.77
2018-05-10T14:21:28.351Z,4.43
2018-05-10T14:23:56.690Z,4.93
2018-05-10T14:26:25.027Z,4.50
2018-05-10T14:28:54.134Z,4.67
2018-05-10T14:31:22.527Z,4.97
2018-05-10T14:33:50.889Z,4.53
2018-05-10T14:36:19.248Z,5.50
2018-05-10T14:38:48.358Z,4.97
2018-05-10T14:41:17.466Z,5.00
2018-05-10T14:43:45.826Z,4.90
2018-05-10T14:46:14.964Z,5.40
2018-05-10T14:48:43.329Z,5.77
2018-05-10T14:51:11.680Z,5.63
2018-05-10T14:53:40.875Z,6.20
2018-05-10T14:56:09.986Z,6.23
2018-05-10T14:58:38.318Z,5.77
2018-05-10T15:01:06.732Z,5.43
2018-05-10T15:03:35.822Z,6.00
2018-05-10T15:06:04.959Z,5.93
2018-05-10T15:08:33.321Z,5.57
2018-05-10T15:11:01.691Z,5.80
2018-05-10T15:13:30.046Z,5.77
2018-05-10T15:15:59.174Z,6.90
2018-05-10T15:18:27.967Z,6.30
2018-05-10T15:20:56.301Z,6.47
2018-05-10T15:23:25.396Z,6.83
2018-05-10T15:25:54.521Z,6.60
2018-05-10T15:28:22.882Z,6.90
2018-05-10T15:30:52.403Z,7.40
2018-05-10T15:33:20.730Z,7.03
2018-05-10T15:35:49.093Z,7.20
2018-05-10T15:38:17.437Z,7.73
2018-05-10T15:40:45.870Z,7.47
2018-05-10T15:43:14.210Z,7.23
2018-05-10T15:45:42.549Z,7.47
2018-05-10T15:48:10.918Z,7.87
2018-05-10T15:50:40.044Z,7.00
2018-05-10T15:53:08.387Z,7.00
2018-05-10T15:55:37.505Z,7.53
2018-05-10T15:58:05.860Z,7.07
2018-05-10T16:00:34.973Z,5.70
2018-05-10T16:03:03.467Z,5.83
2018-05-10T16:05:31.784Z,5.20
2018-05-10T16:08:00.116Z,5.17
2018-05-10T16:10:28.471Z,6.10
2018-05-10T16:12:57.598Z,4.90
2018-05-10T16:15:25.976Z,4.97
2018-05-10T16:17:54.321Z,5.97
2018-05-10T16:20:23.457Z,5.60
2018-05-10T16:22:51.804Z,5.97
2018-05-10T16:25:21.430Z,5.47
2018-05-10T16:27:49.763Z,5.30
2018-05-10T16:30:18.078Z,4.67
2018-05-10T16:32:46.440Z,4.73
2018-05-10T16:35:15.541Z,5.20
2018-05-10T16:37:43.905Z,5.23
2018-05-10T16:40:13.016Z,5.23
2018-05-10T16:42:41.378Z,5.33
2018-05-10T16:45:10.501Z,5.07
2018-05-10T16:47:38.847Z,4.87
2018-05-10T16:50:08.319Z,4.37
2018-05-10T16:52:36.653Z,5.03
2018-05-10T16:55:05.012Z,4.80
2018-05-10T16:57:34.168Z,4.37
2018-05-10T17:00:02.506Z,4.67
2018-05-10T17:02:30.893Z,5.07
2018-05-10T17:04:59.237Z,4.60
2018-05-10T17:07:28.470Z,4.60
2018-05-10T17:09:56.831Z,4.30
2018-05-10T17:12:25.175Z,4.60
2018-05-10T17:14:53.529Z,4.30
2018-05-10T17:17:21.868Z,3.93
2018-05-10T17:19:50.217Z,4.53
2018-05-10T17:22:19.316Z,4.50
2018-05-10T17:24:48.458Z,5.00
2018-05-10T17:27:16.798Z,4.63
2018-05-10T17:29:45.170Z,4.00
2018-05-10T17:32:14.298Z,4.00
2018-05-10T17:34:42.643Z,4.83
2018-05-10T17:37:11.805Z,4.37
2018-05-10T17:39:40.152Z,5.07
2018-05-10T17:42:08.493Z,4.57
2018-05-10T17:44:36.872Z,4.57
2018-05-10T17:47:06.129Z,4.13
2018-05-10T17:49:34.471Z,3.70
2018-05-10T17:52:02.793Z,4.03
2018-05-10T17:54:31.157Z,3.90
2018-05-10T17:56:59.488Z,4.13
2018-05-10T17:59:27.954Z,3.97
2018-05-10T18:01:57.072Z,3.43
2018-05-10T18:04:25.413Z,4.53
2018-05-10T18:06:53.758Z,3.60
2018-05-10T18:09:22.130Z,4.87
2018-05-10T18:11:50.471Z,3.77
2018-05-10T18:14:18.816Z,3.87
2018-05-10T18:16:47.277Z,3.67
2018-05-10T18:19:15.639Z,4.43
2018-05-10T18:21:43.977Z,3.70
2018-05-10T18:24:13.111Z,3.90
2018-05-10T18:26:41.468Z,3.70
2018-05-10T18:29:09.839Z,3.90
2018-05-10T18:31:38.183Z,3.50
2018-05-10T18:34:07.295Z,3.70
2018-05-10T18:36:36.407Z,3.87
2018-05-10T18:39:05.553Z,3.93
2018-05-10T18:41:33.893Z,3.80
2018-05-10T18:44:02.280Z,3.90
2018-05-10T18:46:30.699Z,3.30
2018-05-10T18:48:59.730Z,3.67
2018-05-10T18:51:28.093Z,3.73
2018-05-10T18:53:57.204Z,3.63
2018-05-10T18:56:25.551Z,3.67
2018-05-10T18:58:54.660Z,3.30
2018-05-10T19:01:23.796Z,3.60
2018-05-10T19:03:52.142Z,3.80
2018-05-10T19:06:20.955Z,3.93
2018-05-10T19:08:49.290Z,3.60
2018-05-10T19:11:18.387Z,4.50
2018-05-10T19:13:47.597Z,4.20
2018-05-10T19:16:15.947Z,3.90
2018-05-10T19:18:44.302Z,3.80
2018-05-10T19:21:12.666Z,4.40
2018-05-10T19:23:41.009Z,4.07
2018-05-10T19:26:09.775Z,3.73
2018-05-10T19:28:38.875Z,3.93
2018-05-10T19:31:07.953Z,4.10
2018-05-10T19:33:36.313Z,4.00
2018-05-10T19:36:04.715Z,4.03
2018-05-10T19:38:33.968Z,4.97
2018-05-10T19:41:02.305Z,4.50
2018-05-10T19:43:31.409Z,3.57
2018-05-10T19:45:59.773Z,4.73
2018-05-10T19:48:28.912Z,4.87
2018-05-10T19:50:57.297Z,5.20
2018-05-10T19:53:25.611Z,4.77
2018-05-10T19:55:53.953Z,4.57
2018-05-10T19:58:22.306Z,4.90
2018-05-10T20:00:51.108Z,5.20
2018-05-10T20:03:19.441Z,5.27
2018-05-10T20:05:48.536Z,5.23
2018-05-10T20:08:17.656Z,4.83
2018-05-10T20:10:46.036Z,4.90
2018-05-10T20:13:14.879Z,4.47
2018-05-10T20:15:44.031Z,5.10
2018-05-10T20:18:12.395Z,5.43
2018-05-10T20:20:40.737Z,5.23
2018-05-10T20:23:09.916Z,5.33
2018-05-10T20:25:38.331Z,5.20
2018-05-10T20:28:07.443Z,5.03
2018-05-10T20:30:35.798Z,5.97
2018-05-10T20:33:04.972Z,4.27
2018-05-10T20:35:33.299Z,4.63
2018-05-10T20:38:01.653Z,3.83
2018-05-10T20:40:30.764Z,4.50
2018-05-10T20:42:59.151Z,4.00
2018-05-10T20:45:28.243Z,4.17
2018-05-10T20:47:56.614Z,4.40
2018-05-10T20:50:25.081Z,5.03
2018-05-10T20:52:53.384Z,4.87
2018-05-10T20:55:21.704Z,4.27
2018-05-10T20:57:50.545Z,4.47
2018-05-10T21:00:18.879Z,4.40
2018-05-10T21:02:47.217Z,4.80
2018-05-10T21:05:15.554Z,4.30
2018-05-10T21:07:44.658Z,4.70
2018-05-10T21:10:13.355Z,4.57
2018-05-10T21:12:42.501Z,4.87
2018-05-10T21:15:10.837Z,4.90
2018-05-10T21:17:39.200Z,4.87
2018-05-10T21:20:07.561Z,5.47
2018-05-10T21:22:36.677Z,5.00
2018-05-10T21:25:05.026Z,5.30
2018-05-10T21:27:34.170Z,5.13
2018-05-10T21:30:02.501Z,5.20
2018-05-10T21:32:31.601Z,5.07
2018-05-10T21:35:00.750Z,5.13
2018-05-10T21:37:29.084Z,5.13
2018-05-10T21:39:57.469Z,5.80
2018-05-10T21:42:26.251Z,6.07
2018-05-10T21:44:54.581Z,6.17
2018-05-10T21:47:22.903Z,6.00
2018-05-10T21:50:03.141Z,6.07
2018-05-10T21:52:32.293Z,5.90
2018-05-10T21:55:00.755Z,6.37
2018-05-10T21:57:29.025Z,6.40
2018-05-10T21:59:57.396Z,6.40
2018-05-10T22:02:25.742Z,6.10
2018-05-10T22:04:54.852Z,6.70
2018-05-10T22:07:23.207Z,6.70
2018-05-10T22:09:51.570Z,6.37
2018-05-10T22:12:19.907Z,6.33
2018-05-10T22:14:48.267Z,6.80
2018-05-10T22:17:16.631Z,6.90
2018-05-10T22:19:45.731Z,6.23
2018-05-10T22:22:14.872Z,6.70
2018-05-10T22:24:43.212Z,6.07
2018-05-10T22:27:11.559Z,7.10
2018-05-10T22:29:39.931Z,6.33
2018-05-10T22:32:08.288Z,7.60
2018-05-10T22:34:36.630Z,7.00
2018-05-10T22:37:05.524Z,6.97
2018-05-10T22:39:33.849Z,7.53
2018-05-10T22:42:02.204Z,7.47
2018-05-10T22:44:30.587Z,6.70
2018-05-10T22:46:58.914Z,7.37
2018-05-10T22:49:27.253Z,6.30
2018-05-10T22:51:55.914Z,6.57
2018-05-10T22:54:24.282Z,6.47
2018-05-10T22:56:52.633Z,6.20
2018-05-10T22:59:21.773Z,6.70
2018-05-10T23:01:50.150Z,6.60
2018-05-10T23:04:18.507Z,6.97
2018-05-10T23:06:46.841Z,6.77
2018-05-10T23:09:16.006Z,6.40
2018-05-10T23:11:44.378Z,6.60
2018-05-10T23:14:12.845Z,6.57
2018-05-10T23:16:41.162Z,6.17
2018-05-10T23:19:09.497Z,6.23
2018-05-10T23:21:37.867Z,6.03
2018-05-10T23:24:06.175Z,5.63
2018-05-10T23:26:34.620Z,6.07
2018-05-10T23:29:03.380Z,6.17
2018-05-10T23:31:33.009Z,6.00
2018-05-10T23:34:01.366Z,6.77
2018-05-10T23:36:30.468Z,6.40
2018-05-10T23:38:58.806Z,6.17
2018-05-10T23:41:27.292Z,5.90
2018-05-10T23:43:55.643Z,6.30
2018-05-10T23:46:23.984Z,6.47
2018-05-10T23:48:52.331Z,6.93
2018-05-10T23:51:20.696Z,7.27
2018-05-10T23:53:49.152Z,7.60
2018-05-10T23:56:17.489Z,5.97
2018-05-10T23:58:45.821Z,7.43
